x

9441102 - Westport, Wa (wptw1) Weather Station

9:36 - Fri 24th Jun 2016 All times are PDT. -7 hours from GMT.

  • Wind
    5mph, 6mph gusts
  • Sea Temp 59°f
  • Aire Temp 57°f
  • Sea Pressure 1026.5mb
  • 9441102 - Westport, Wa
  • 9441102 - Westport, Wa

More Historic Weather Station data

Upgrade to MSW Pro to gain access to the past 30 days of data for over 8000 Wavebouys and Weather Stations around the globe.

Join Pro

Comparision Forecast

View Surf forecast
   
vie 06/24 9:36 5 6 mph 1026.5mb 59f 57f
9:30 6 7 mph 1026.6mb 59f 57f
9:24 5 7 mph 1026.6mb 60f 57f
9:18 5 6 mph 1026.6mb 60f 57f
9:12 6
mph
1026.7mb 60f 57f
9:06 6
mph
1026.7mb 60f 57f
9:00 6 7 mph 1026.6mb 60f 57f
8:36 6 7 mph 1026.7mb 60f 57f
8:30 6 7 mph 1026.7mb 60f 57f
8:24 6 7 mph 1026.7mb 60f 57f
8:18 6 7 mph 1026.7mb 60f 57f
8:12 6 7 mph 1026.7mb 60f 57f
8:06 5 7 mph 1026.7mb 60f 57f
8:00 6 7 mph 1026.7mb 59f 57f
7:36 8 9 mph 1026.7mb 59f 57f
7:30 7 8 mph 1026.7mb 59f 57f
7:24 7 9 mph 1026.7mb 59f 57f
7:18 7
mph
1026.7mb 59f 57f
7:12 7 8 mph 1026.6mb 58f 57f
7:06 8 10 mph 1026.6mb 58f 56f
7:00 10 11 mph 1026.7mb 58f 56f
6:36  -  mph 1026.6mb 58f 57f
6:30  -  mph 1026.6mb 57f 57f
6:24  -  mph 1026.7mb 57f 58f
6:18  -  mph 1026.7mb 57f 58f
6:12  -  mph 1026.6mb 57f 58f
6:06  -  mph 1026.6mb 57f 57f
6:00  -  mph 1026.6mb 57f 57f
5:36 8 9 mph 1026.5mb 57f 57f
5:30 8 9 mph 1026.5mb 57f 57f
5:24 8 10 mph 1026.5mb 57f 57f
5:18 8 9 mph 1026.6mb 58f 57f
5:12 8 9 mph 1026.6mb 58f 57f
5:06 8 9 mph 1026.6mb 58f 57f
5:00 8 9 mph 1026.6mb 58f 58f
4:36 8 11 mph 1026.5mb 58f 57f
4:30 9 10 mph 1026.5mb 58f 57f
4:24 8 9 mph 1026.5mb 58f 57f
4:18 8 9 mph 1026.4mb 58f 58f
4:12 7 9 mph 1026.4mb 58f 57f
4:06 8 10 mph 1026.4mb 58f 57f
4:00 8 9 mph 1026.3mb 59f 57f
3:36 7 9 mph 1026.4mb 59f 57f
3:30 7 9 mph 1026.4mb 59f 57f
3:24 8 10 mph 1026.4mb 59f 57f
3:18 9 11 mph 1026.4mb 59f 57f
3:12 9 11 mph 1026.4mb 59f 56f
3:06 9 10 mph 1026.3mb 59f 56f
3:00 9 11 mph 1026.3mb 59f 56f
2:36 9 13 mph 1026.1mb 59f 55f
2:30 9 11 mph 1026mb 59f 55f
2:24 8 13 mph 1026mb 59f 56f
2:18 10 13 mph 1026mb 59f 55f
2:12 10 11 mph 1025.9mb 59f 56f
2:06 11 15 mph 1025.8mb 59f 56f
2:00 15 16 mph 1025.8mb 59f 56f
1:36 10 13 mph 1025.6mb 58f 57f
1:30 10
mph
1025.5mb 58f 57f
1:24 9 11 mph 1025.4mb 58f 56f
1:18 10 11 mph 1025.4mb 58f 56f
1:12 9 10 mph 1025.3mb 58f 56f
1:06 9 10 mph 1025.3mb 58f 56f
1:00 9 10 mph 1025.2mb 58f 56f
12:36 11 14 mph 1025mb 58f 56f
12:30 11 14 mph 1024.9mb 58f 56f
12:24 13 15 mph 1024.9mb 58f 56f
12:18 13 14 mph 1024.8mb 58f 56f
12:12 13 15 mph 1024.7mb 58f 56f
12:06 13 16 mph 1024.7mb 58f 56f
12:00 14 15 mph 1024.6mb 58f 56f
11:36 13 14 mph 1024.4mb 58f 56f
11:30 13 15 mph 1024.3mb 58f 56f
11:24 13 14 mph 1024.3mb 58f 56f
11:18 11 13 mph 1024.2mb 59f 56f
11:12 11 13 mph 1024.2mb 59f 56f
11:06 11 13 mph 1024.1mb 59f 55f
11:00 10 11 mph 1024mb 59f 55f
10:36 14 20 mph 1023.8mb 59f 56f
10:30 11 14 mph 1023.7mb 59f 56f
10:24 11 13 mph 1023.7mb 59f 56f
10:18 11 13 mph 1023.6mb 58f 57f
10:12 11 13 mph 1023.5mb 58f 57f
10:06 11 14 mph 1023.5mb 58f 57f
10:00 10 11 mph 1023.5mb 58f 57f
9:36 11 13 mph 1023.3mb 59f 56f
9:30 11 13 mph 1023.3mb 59f 56f
9:24 10 13 mph 1023.2mb 59f 56f
9:18 11 15 mph 1023.2mb 59f 56f
9:12 14 15 mph 1023.1mb 59f 55f
9:06 11 14 mph 1023.1mb 59f 55f
9:00 10 11 mph 1023mb 59f 56f
8:36 9 11 mph 1022.8mb 59f 55f
8:30 9 11 mph 1022.8mb 59f 55f
8:24 9 10 mph 1022.8mb 58f 55f
8:18 9 10 mph 1022.7mb 58f 55f
8:12 9 10 mph 1022.7mb 58f 55f
8:06 10 13 mph 1022.6mb 58f 55f
8:00 10 13 mph 1022.5mb 58f 55f
7:36 11 14 mph 1022.3mb 58f 55f
7:30 13 17 mph 1022.3mb 58f 55f
7:24 14 16 mph 1022.2mb 57f 55f
7:18 13 17 mph 1022.1mb 57f 55f
7:12 14 17 mph 1022.1mb 57f 56f
7:06 13 14 mph 1022mb 57f 56f
7:00 13 14 mph 1022mb 57f 56f
6:36 9 10 mph 1021.8mb 57f 55f
6:30 9 10 mph 1021.7mb 57f 55f
6:24 9 11 mph 1021.7mb 57f 55f
6:18 9 11 mph 1021.6mb 57f 55f
6:12 11 13 mph 1021.6mb 57f 55f
6:06 8 10 mph 1021.6mb 57f 55f
6:00 8 14 mph 1021.5mb 57f 55f
5:36 10 14 mph 1021.4mb 57f 56f
5:30 11 13 mph 1021.4mb 57f 56f
5:24 11 14 mph 1021.4mb 57f 55f
5:18 11 15 mph 1021.3mb 57f 55f
5:12 14 16 mph 1021.2mb 57f 55f
5:06 17 20 mph 1021.2mb 57f 55f
5:00 17 22 mph 1021.3mb 57f 55f
4:36 11 13 mph 1021.2mb 57f 56f
4:30 11 14 mph 1021.2mb 57f 56f
4:24 10 13 mph 1021.1mb 57f 56f
4:18 10 13 mph 1021.1mb 57f 56f
4:12 10 13 mph 1021.1mb 57f 56f
4:06 11 14 mph 1021.1mb 57f 56f
4:00 10 13 mph 1021mb 57f 56f
3:36 10 13 mph 1021mb 57f 56f
3:30 11 13 mph 1020.9mb 58f 56f
3:24 10 13 mph 1020.9mb 58f 56f
3:18 11
mph
1020.9mb 58f 56f
3:12 10 11 mph 1020.8mb 58f 56f
3:06 9 13 mph 1020.8mb 58f 56f
3:00 10 11 mph 1020.9mb 58f 56f
2:36 10 11 mph 1020.8mb 58f 56f
2:30 10 11 mph 1020.8mb 58f 56f
2:24 10 13 mph 1020.7mb 58f 56f
2:18 10 11 mph 1020.7mb 58f 56f
2:12 11
mph
1020.6mb 58f 56f
2:06 9 11 mph 1020.6mb 58f 56f
2:00 9 11 mph 1020.6mb 58f 56f
1:36 10 13 mph 1020.5mb 58f 56f
1:30 9 11 mph 1020.5mb 58f 56f
1:24 10 13 mph 1020.5mb 58f 56f
1:18 11 13 mph 1020.5mb 58f 56f
1:12 10 13 mph 1020.5mb 58f 56f
1:06 8 11 mph 1020.5mb 59f 56f
1:00 9 11 mph 1020.5mb 58f 56f
12:36 11 14 mph 1020.4mb 58f 56f
12:30 10 13 mph 1020.4mb 59f 56f
12:24 9 11 mph 1020.5mb 59f 56f
12:18 9 11 mph 1020.5mb 59f 56f
12:12 10 13 mph 1020.5mb 58f 56f
12:06 11 14 mph 1020.5mb 58f 56f
12:00 10 13 mph 1020.4mb 58f 56f
jue 06/23 11:36 11 14 mph 1020.3mb 58f 56f
11:30 9 11 mph 1020.3mb 58f 56f
11:24 9 11 mph 1020.3mb 58f 56f
11:18 9 13 mph 1020.3mb 58f 56f
11:12 10 11 mph 1020.3mb 58f 56f
11:06 10 13 mph 1020.2mb 58f 56f
11:00 10 11 mph 1020.2mb 58f 56f
10:36 10 11 mph 1020.2mb 58f 56f
10:30 10 11 mph 1020.3mb 59f 56f
10:24 10 11 mph 1020.2mb 59f 57f
10:18 9 14 mph 1020.2mb 59f 57f
10:12 10 13 mph 1020.2mb 59f 57f
10:06 11 13 mph 1020.1mb 59f 57f
10:00 11 14 mph 1020.1mb 59f 57f
9:54 11 14 mph 1020mb 59f 57f
9:48 13 14 mph 1020mb 59f 57f
9:36 13 15 mph 1019.9mb 59f 57f
9:30 13 15 mph 1019.9mb 59f 57f
9:24 11 14 mph 1019.8mb 59f 57f
9:18 10 14 mph 1019.8mb 59f 57f
9:12 11 13 mph 1019.9mb 59f 57f
9:06 10 13 mph 1019.9mb 59f 57f
9:00 11 13 mph 1019.9mb 59f 57f
8:54 11 14 mph 1019.9mb 59f 57f
8:48 11 14 mph 1019.8mb 58f 57f
8:36 8 11 mph 1019.8mb 58f 57f
8:30 10 11 mph 1019.8mb 58f 57f
8:24 9 10 mph 1019.8mb 59f 57f
8:18 10 11 mph 1019.8mb 59f 57f
8:12 10 11 mph 1019.8mb 59f 57f
8:06 10 11 mph 1019.8mb 59f 57f
8:00 11 13 mph 1019.8mb 59f 57f
7:54 11 13 mph 1019.7mb 59f 57f
7:48 11 13 mph 1019.7mb 59f 57f
7:36  -  mph 1019.7mb 59f 56f
7:30  -  mph 1019.7mb 59f 56f
7:24  -  mph 1019.6mb 59f 56f
7:18  -  mph 1019.5mb 59f 56f
7:12  -  mph 1019.5mb 59f 56f
7:06  -  mph 1019.4mb 58f 56f
7:00  -  mph 1019.4mb 58f 56f
6:54  -  mph 1019.3mb 58f 56f
6:48  -  mph 1019.3mb 58f 56f
6:36 13 14 mph 1019.3mb 58f 56f
6:30 13
mph
1019.2mb 58f 56f
6:24 11 14 mph 1019.3mb 57f 56f
6:18 11 14 mph 1019.3mb 57f 56f
6:12 9 11 mph 1019.3mb 57f 56f
6:06 10 13 mph 1019.3mb 57f 56f
6:00 11 13 mph 1019.2mb 57f 57f
5:54 9 10 mph 1019.2mb 57f 57f
5:48 9 10 mph 1019.1mb 57f 58f
5:36 9 10 mph 1019.1mb 57f 58f
5:30 9
mph
1019.1mb 57f 58f
5:24 9 10 mph 1019.1mb 57f 58f
5:18 9 10 mph 1019.1mb 56f 58f
5:12 9 10 mph 1019mb 56f 59f
5:06 8 10 mph 1019mb 56f 58f
5:00 9 11 mph 1019mb 56f 58f
4:54 9 11 mph 1019mb 56f 58f
4:48 9 11 mph 1018.9mb 56f 58f
4:36 11 13 mph 1018.8mb 56f 60f
4:30 6 9 mph 1018.8mb 56f 60f
4:24 7 9 mph 1018.8mb 56f 59f
4:18 9 11 mph 1018.8mb 56f 58f
4:12 11 13 mph 1018.8mb 57f 58f
4:06 11 14 mph 1018.7mb 57f 58f
4:00 13 14 mph 1018.7mb 57f 57f
3:54 10 11 mph 1018.7mb 57f 57f
3:48 11 14 mph 1018.8mb 57f 57f
3:36 15 18 mph 1018.8mb 57f 56f
3:30 16 20 mph 1018.8mb 57f 56f
3:24 18 21 mph 1018.7mb 57f 55f
3:18 18 22 mph 1018.7mb 58f 56f
3:12 20 21 mph 1018.6mb 58f 56f
3:06 17 20 mph 1018.6mb 58f 57f
3:00 11 13 mph 1018.5mb 58f 58f
2:54 11 14 mph 1018.5mb 58f 58f
2:48 11 13 mph 1018.5mb 58f 58f
2:36 11 13 mph 1018.3mb 58f 58f
2:30 10
mph
1018.3mb 58f 58f
2:24 8 10 mph 1018.3mb 58f 58f
2:18 9 11 mph 1018.2mb 58f 58f
2:12 11 13 mph 1018.2mb 58f 58f
2:06 10 13 mph 1018.1mb 58f 58f
2:00 11 14 mph 1018.1mb 58f 60f
1:54 9 14 mph 1018.1mb 58f 60f
1:48 9 13 mph 1018.1mb 58f 60f
1:36 11 13 mph 1018mb 58f 59f
1:30 10 13 mph 1018mb 58f 59f
1:24 9 10 mph 1017.9mb 58f 59f
1:18 8 10 mph 1017.9mb 58f 60f
1:12 8 10 mph 1017.8mb 58f 59f
1:06 9 11 mph 1017.7mb 58f 58f
1:00 9 13 mph 1017.7mb 58f 59f
12:54 7 13 mph 1017.7mb 58f 59f
12:48 8 11 mph 1017.7mb 58f 58f
12:36 10 13 mph - 58f 58f
12:30 8 10 mph - 58f 58f
12:24 9 11 mph - 58f 58f
12:18 7 11 mph - 58f 58f
12:12 8 10 mph - 58f 58f
12:06 9 11 mph - 58f 57f
12:00 8 10 mph - 58f 57f
11:54 7 9 mph - 58f 57f
11:48 8 10 mph - 58f 57f
11:36 7 9 mph 1017.3mb 58f 57f
11:30 7 9 mph 1017.2mb 58f 57f
11:24 7 9 mph 1017.1mb 58f 57f
11:18 8 10 mph 1017.1mb 58f 57f
11:12 7 9 mph 1017.1mb 58f 57f
11:06 7 9 mph - - 57f
11:00 7 9 mph 1016.9mb 58f 57f
10:54 6 9 mph 1016.9mb 58f 57f
10:48 6 8 mph 1016.9mb 58f 56f
10:36 6 8 mph 1016.8mb 58f 55f
10:30 7 9 mph 1016.8mb 58f 55f
10:24 6 7 mph 1016.7mb 58f 55f
10:18 6 8 mph 1016.6mb 58f 55f
10:12 8 9 mph 1016.7mb 58f 55f
10:06 7 8 mph 1016.6mb 58f 55f
10:00 7 10 mph 1016.6mb 58f 55f
9:54 9 11 mph 1016.6mb 58f 55f
9:48 11 13 mph 1016.5mb 58f 55f
9:36 11 14 mph 1016.4mb 58f 56f
9:30 11 15 mph 1016.2mb 58f 56f
9:24 10 15 mph 1016.1mb 58f 56f
9:18 15 17 mph 1016mb 58f 55f
9:12 15 20 mph 1016mb 58f 56f
9:06 16 20 mph 1016mb 58f 56f
9:00 16 18 mph 1016mb 58f 56f
8:54 15 18 mph 1015.9mb 58f 56f
8:48 15 17 mph 1015.9mb 58f 56f
8:36 10 14 mph 1015.7mb 57f 56f
8:30 9 11 mph 1015.7mb 57f 56f
8:24 10 11 mph 1015.6mb 57f 56f
8:18 10 11 mph 1015.5mb 57f 56f
8:12 9 11 mph 1015.5mb 57f 56f
8:06 9 10 mph 1015.5mb 57f 56f
8:00 9 11 mph 1015.4mb 57f 56f
7:54 8 9 mph 1015.3mb 57f 56f
7:48 9 10 mph 1015.3mb 57f 56f
7:36 8 10 mph 1015.2mb 57f 56f
7:30 8 10 mph 1015.1mb 57f 56f
7:24 8 9 mph 1015.1mb 57f 56f
7:18 8 10 mph 1015.1mb 57f 56f
7:12 9 11 mph 1015mb 57f 56f
7:06 9 11 mph 1014.9mb 56f 56f
7:00 11 13 mph 1014.9mb 56f 56f
6:54 11 13 mph 1014.8mb 57f 56f
6:48 10 14 mph 1014.7mb 57f 56f
6:36 10 14 mph 1014.6mb 57f 56f
6:30 13 14 mph 1014.5mb 57f 56f
6:24 10 14 mph 1014.5mb 57f 56f
6:18 9 14 mph 1014.5mb 56f 56f
6:12 11 14 mph 1014.5mb 56f 56f
6:06 13 16 mph 1014.4mb 56f 56f
6:00 11 16 mph 1014.3mb 56f 56f
5:54 13 15 mph 1014.3mb 56f 56f
5:48 14 17 mph 1014.2mb 56f 56f
5:36 14 18 mph 1014.2mb 56f 56f
5:30 13 16 mph 1014.3mb 56f 56f
5:24 13 15 mph 1014.3mb 56f 56f
5:18 11 14 mph 1014.2mb 56f 56f
5:12 9 13 mph 1014.3mb 56f 56f
5:06 10 14 mph 1014.2mb 56f 56f
5:00 7 13 mph 1014.2mb 56f 56f
4:54 8 14 mph 1014.2mb 55f 56f
4:48 10 14 mph 1014.1mb 55f 56f
4:36 10 14 mph 1014.1mb 55f 56f
4:30 11 16 mph 1014.1mb 55f 56f
4:24 10 15 mph 1014.1mb 55f 56f
4:18 10 14 mph 1014.1mb 55f 56f
4:12 9 14 mph 1014.1mb 55f 56f
4:06 10 15 mph 1014.1mb 55f 56f
4:00 9 14 mph 1014.1mb 55f 55f
3:54 10 20 mph 1014mb 55f 55f
3:48 10 20 mph 1014.1mb 55f 55f
3:36 15 22 mph 1014.1mb 56f 55f
3:30 18 23 mph 1014.1mb 56f 55f
3:24 17 24 mph 1014.1mb 56f 55f
3:18 15 23 mph 1014.1mb 56f 55f
3:12 14 21 mph 1014.2mb 56f 55f
3:06 16 22 mph 1014.2mb 56f 55f
3:00 14 20 mph 1014.1mb 56f 56f
2:54 11 16 mph 1014mb 56f 56f
2:48 11 18 mph 1013.9mb 56f 56f
2:36 14 21 mph 1014mb 56f 56f
2:30 13 21 mph 1014.1mb 56f 56f
2:24 14 20 mph 1014.2mb 56f 56f
2:18 11 21 mph 1014.2mb 56f 56f
2:12 11 20 mph 1014.3mb 56f 56f
2:06 10 16 mph 1014.3mb 56f 56f
2:00 10 15 mph 1014.3mb 56f 56f
1:54 10 17 mph 1014.3mb 56f 56f
1:48 11 17 mph 1014.4mb 56f 56f
1:36 13 17 mph 1014.5mb 56f 55f
1:30 13 16 mph 1014.6mb 56f 55f
1:24 11 16 mph 1014.7mb 56f 55f
1:18 11 17 mph 1014.8mb 56f 55f
1:12 9 17 mph 1014.9mb 56f 55f
1:06 11 16 mph 1014.9mb 56f 55f
1:00 14 18 mph 1015mb 56f 55f
12:54 11 18 mph 1015mb 56f 55f
12:48 13 17 mph 1015.1mb 56f 55f
12:36 9 14 mph 1015.2mb 56f 55f
12:30 10 15 mph 1015.3mb 56f 55f
12:24 9 13 mph 1015.3mb 57f 55f
12:18 8 14 mph 1015.3mb 57f 55f
12:12 9 13 mph 1015.4mb 57f 55f
12:06 7 10 mph 1015.4mb 57f 55f
12:00 8 13 mph 1015.4mb 57f 55f
mié 06/22 11:54 7 11 mph 1015.5mb 57f 55f
11:48 8 10 mph 1015.5mb 57f 55f
11:36 9 11 mph 1015.6mb 57f 55f
11:30 8 10 mph 1015.6mb 57f 55f
11:24 7 10 mph 1015.7mb 57f 55f
11:18 7 10 mph 1015.7mb 57f 55f
11:12 8 11 mph 1015.8mb 57f 55f
11:06 7 10 mph 1015.8mb 57f 54f
11:00 8 10 mph 1015.8mb 57f 54f
10:54 6 9 mph 1015.9mb 57f 54f
10:48 7 10 mph 1015.9mb 57f 54f
10:36 8 9 mph 1015.9mb 57f 54f
10:30 7 9 mph 1016mb 57f 54f
10:24 7 9 mph 1016.1mb 57f 54f
10:18 7 9 mph 1016.1mb 57f 54f
10:12 8 10 mph 1016.1mb 57f 54f
10:06 8 11 mph 1016.1mb 57f 54f
10:00 8 10 mph 1016mb 57f 54f
9:54 7 10 mph 1016mb 57f 54f
9:48 7 10 mph 1016mb 57f 54f
9:36 7 10 mph 1016mb 57f 55f
9:30 9 13 mph 1016.1mb 57f 55f
9:24 6 9 mph 1016.2mb 58f 55f
9:18 7 10 mph 1016.2mb 58f 55f
9:12 7 9 mph 1016.2mb 58f 55f
9:06 7 9 mph 1016.2mb 58f 55f
9:00 6 9 mph 1016.3mb 58f 55f
8:54 6 10 mph 1016.3mb 58f 54f
8:48 8 10 mph 1016.3mb 58f 54f
8:36 9 13 mph 1016.4mb 58f 55f
8:30 10 11 mph 1016.4mb 58f 55f
8:24 8 11 mph 1016.5mb 58f 55f
8:18 10 13 mph 1016.5mb 58f 55f
8:12 10 13 mph 1016.5mb 58f 55f
8:06 8 10 mph 1016.4mb 58f 55f
8:00 9 10 mph 1016.6mb 58f 55f
7:54 9 13 mph 1016.6mb 59f 55f
7:48 9 13 mph 1016.7mb 59f 55f
7:36 6 7 mph 1016.7mb 59f 57f
7:30 3 6 mph 1016.7mb 59f 57f
7:24 5 6 mph 1016.7mb 59f 57f
7:18 5 6 mph 1016.8mb 59f 57f
7:12 5 7 mph 1016.8mb 59f 57f
7:06 5 7 mph 1016.9mb 59f 57f
7:00 5 6 mph 1017mb 58f 57f
6:54 5 7 mph 1017mb 58f 57f
6:48 6 7 mph 1017.1mb 58f 57f
6:36  -  mph 1017.2mb 58f 58f
6:30  -  mph 1017.3mb 58f 58f
6:24  -  mph 1017.3mb 57f 58f
6:18  -  mph 1017.3mb 57f 58f
6:12  -  mph 1017.4mb 57f 58f
6:06  -  mph 1017.4mb 57f 58f
6:00  -  mph 1017.5mb 57f 58f
5:54  -  mph 1017.5mb 57f 57f
5:48  -  mph 1017.5mb 56f 57f
5:36 6 7 mph 1017.6mb 56f 58f
5:30 6 7 mph 1017.6mb 56f 58f
5:24 3 6 mph 1017.6mb 55f 58f
5:18 5 6 mph 1017.7mb 55f 58f
5:12 5 6 mph 1017.8mb 55f 58f
5:06 6 7 mph 1017.9mb 55f 58f
5:00 7 8 mph 1017.9mb 55f 58f
4:54 7 9 mph 1018.1mb 55f 58f
4:48 8 9 mph 1018.2mb 54f 58f
4:36 8
mph
1018.2mb 54f 58f
4:30 7 8 mph 1018.2mb 54f 58f
4:24 7 8 mph 1018.2mb 53f 58f
4:18 6 7 mph 1018.2mb 53f 58f
4:12 6 8 mph 1018.2mb 53f 58f
4:06 7 8 mph 1018.3mb 53f 58f
4:00 6 7 mph 1018.3mb 53f 58f
3:54 6 9 mph 1018.5mb 53f 58f
3:48 7 9 mph 1018.7mb 53f 58f
3:36 8
mph
1018.7mb 53f 58f
3:30 7 8 mph 1018.8mb 54f 58f
3:24 6 7 mph 1018.8mb 54f 58f
3:18 6 8 mph 1018.8mb 54f 58f
3:12 8 9 mph 1019mb 54f 58f
3:06 8 9 mph 1019mb 54f 58f
3:00 8 9 mph 1019mb 54f 59f
2:54 8 9 mph 1019.1mb 54f 58f
2:48 7 10 mph 1019.1mb 54f 58f
2:36 7 8 mph 1019.1mb 55f 58f
2:30 7 9 mph 1019.1mb 55f 58f
2:24 8 9 mph 1019.2mb 56f 58f
2:18 7 9 mph 1019.3mb 56f 58f
2:12 8 10 mph 1019.4mb 56f 58f
2:06 10 11 mph 1019.6mb 56f 58f
2:00 9 11 mph 1019.6mb 57f 58f
1:54 9 11 mph 1019.6mb 58f 59f
1:48 9 11 mph 1019.5mb 59f 58f
1:36 10 13 mph 1019.5mb 60f 58f
1:30 9 11 mph 1019.4mb 60f 58f
1:24 8 10 mph 1019.4mb 60f 59f
1:18 8 11 mph 1019.4mb 60f 58f
1:12 8 9 mph 1019.5mb 59f 58f
1:06 8 10 mph 1019.5mb 59f 58f
1:00 8 10 mph 1019.5mb 59f 58f
12:54 7 10 mph 1019.6mb 59f 59f
12:48 7 10 mph 1019.6mb 59f 58f
12:36 7 8 mph 1019.6mb 59f 58f
12:30 7 9 mph 1019.6mb 59f 58f
12:24 7 8 mph 1019.6mb 59f 58f
12:18 6 8 mph 1019.6mb 59f 58f
12:12 7 8 mph 1019.6mb 59f 58f
12:06 7 9 mph 1019.6mb 59f 58f
12:00 7 8 mph 1019.6mb 59f 58f
11:54 6 7 mph 1019.7mb 59f 58f
11:48 7 8 mph 1019.7mb 58f 58f
11:36 6 8 mph 1019.8mb 58f 57f
11:30 7 9 mph 1019.8mb 58f 57f
11:24 6 8 mph 1019.7mb 58f 57f
11:18 5 6 mph 1019.8mb 58f 58f
11:12 6 8 mph 1019.8mb 58f 58f
11:06 5 7 mph 1019.8mb 58f 58f
11:00 5 7 mph 1019.8mb 59f 58f
10:54 6 7 mph 1019.9mb 59f 57f
10:48 3 6 mph 1019.9mb 59f 58f
10:36 5 6 mph 1020.1mb 60f 57f
10:30 6 7 mph 1020.1mb 60f 57f
10:24 6 7 mph 1020.2mb 60f 57f
10:18 6 8 mph 1020.2mb 60f 57f
10:12 5 8 mph 1020.2mb 60f 57f
10:06 5 8 mph 1020.3mb 60f 58f
10:00 7 9 mph 1020.4mb 60f 58f
9:54 7 8 mph 1020.3mb 60f 57f
9:48 7 8 mph 1020.2mb 60f 57f
9:36 5 7 mph 1020.3mb 60f 57f
9:30 5 7 mph 1020.2mb 60f 57f
9:24 6 8 mph 1020.3mb 60f 57f
9:18 7
mph
1020.2mb 60f 58f
9:12 5 6 mph 1020.2mb 60f 57f
9:06 3 5 mph 1020.2mb 60f 59f
9:00 5
mph
1020.2mb 60f 58f
8:54 6
mph
1020.3mb 60f 59f
8:48 6 8 mph 1020.3mb 60f 58f
8:36 6 9 mph 1020.4mb 59f 61f
8:30 3 5 mph 1020.4mb 59f 61f
8:24 2 3 mph 1020.4mb 59f 62f
8:18 2 5 mph 1020.3mb 59f 63f
8:12 2 3 mph 1020.2mb 59f 61f
8:06 2 7 mph 1020.1mb 59f 60f
8:00 6 8 mph 1020.2mb 59f 60f
7:54 7 8 mph 1020.2mb 59f 60f
7:48 6 7 mph 1020.2mb 60f 60f
7:36 5 6 mph 1020.1mb 60f 57f
7:30 6
mph
1020.2mb 60f 57f
7:24 5 7 mph 1020.2mb 60f 57f
7:18 6 7 mph 1020.2mb 60f 57f
7:12 3 5 mph 1020.1mb 59f 57f
7:06 3 5 mph 1020.2mb 59f 57f
7:00 3
mph
1020.2mb 59f 56f
6:54 1 3 mph 1020.3mb 59f 56f
6:48 3 5 mph 1020.4mb 59f 56f
6:36 3
mph
1020.4mb 58f 56f
6:30 3 5 mph 1020.4mb 58f 56f
6:24 3 6 mph 1020.5mb 58f 56f
6:18 5 6 mph 1020.5mb 58f 55f
6:12 5 6 mph 1020.5mb 58f 55f
6:06 3 5 mph 1020.4mb 58f 55f
6:00 3 5 mph 1020.5mb 58f 55f
5:54 3 5 mph 1020.6mb 58f 55f
5:48 3 6 mph 1020.5mb 58f 55f
5:36 6 7 mph 1020.5mb 58f 55f
5:30 6 7 mph 1020.5mb 57f 55f
5:24 6 7 mph 1020.6mb 57f 55f
5:18 6 7 mph 1020.6mb 57f 55f
5:12 6
mph
1020.5mb 57f 55f
5:06 5 6 mph 1020.5mb 57f 55f
5:00 6 8 mph 1020.5mb 57f 55f
4:54 6 8 mph 1020.6mb 57f 55f
4:48 6 7 mph 1020.6mb 57f 55f
4:36 6 8 mph 1020.6mb 57f 55f
4:30 6 7 mph 1020.6mb 57f 55f
4:24 5 6 mph 1020.6mb 57f 55f
4:18 5 7 mph 1020.6mb 57f 55f
4:12 8
mph
1020.7mb 57f 55f
4:06 8 9 mph 1020.7mb 57f 55f
4:00 8 10 mph 1020.8mb 56f 55f
3:54 9 10 mph 1020.8mb 57f 55f
3:48 9 11 mph 1020.8mb 56f 55f
3:36 10 11 mph 1021mb 56f 55f
3:30 11 14 mph 1021.1mb 56f 55f
3:24 13 14 mph 1021mb 56f 55f
3:18 13 14 mph 1020.9mb 56f 55f
3:12 13 14 mph 1020.9mb 57f 55f
3:06 13 14 mph 1020.9mb 56f 55f
3:00 13 14 mph 1020.9mb 56f 55f
2:54 11 14 mph 1020.9mb 56f 55f
2:48 11 13 mph 1020.9mb 56f 55f
2:36 10 13 mph 1021.1mb 56f 55f
2:30 11 13 mph 1021.1mb 56f 55f
2:24 11 14 mph 1021.1mb 56f 55f
2:18 10 13 mph 1021.1mb 56f 55f
2:12 9 10 mph 1021.1mb 56f 55f
2:06 9 10 mph 1021.1mb 56f 55f
2:00 11 13 mph 1021.2mb 56f 55f
1:54 9 11 mph 1021.2mb 56f 55f
1:48 9 10 mph 1021.1mb 57f 55f
1:36 13 14 mph 1021.3mb 56f 56f
1:30 11 15 mph 1021.3mb 56f 56f
1:24 13 16 mph 1021.4mb 57f 56f
1:18 14 15 mph 1021.4mb 57f 56f
1:12 13 15 mph 1021.4mb 58f 56f
1:06 14 16 mph 1021.4mb 58f 56f
1:00 13 14 mph 1021.5mb 58f 56f
12:54 13 15 mph 1021.7mb 58f 56f
12:48 13 15 mph 1021.7mb 58f 56f
12:36 14 16 mph 1021.7mb 58f 56f
12:30 15 20 mph 1021.7mb 58f 56f
12:24 17 18 mph 1021.8mb 58f 56f
12:18 16 20 mph 1021.9mb 58f 56f
12:12 17 21 mph 1021.9mb 58f 56f
12:06 15 17 mph 1021.9mb 58f 56f
12:00 15 17 mph 1022mb 58f 56f
mar 06/21 11:54 16 17 mph 1022mb 58f 56f
11:48 15 16 mph 1022mb 58f 56f
11:36 15 18 mph 1022.2mb 58f 56f
11:30 16 20 mph 1022.2mb 58f 56f
11:24 16 18 mph 1022.2mb 59f 56f
11:18 18 21 mph 1022.3mb 59f 56f
11:12 17 20 mph 1022.4mb 59f 56f
11:06 16 18 mph 1022.4mb 60f 56f
11:00 17 20 mph 1022.5mb 59f 56f
10:54 18 21 mph 1022.5mb 59f 56f
10:48 17 20 mph 1022.6mb 60f 56f
10:36 16 20 mph 1022.6mb 60f 57f
10:30 18 20 mph 1022.7mb 60f 57f
10:24 17 20 mph 1022.8mb 60f 56f
10:18 17 18 mph 1022.9mb 60f 56f
10:12 15 16 mph 1022.9mb 60f 56f
10:06 14 16 mph 1023mb 60f 56f
10:00 15 20 mph 1023mb 59f 57f
9:54 16 18 mph 1023.1mb 59f 56f
9:48 14 20 mph 1023.1mb 59f 57f
9:36 17 20 mph 1023mb 59f 57f
9:30 16 18 mph 1023mb 60f 57f
9:24 14 18 mph 1023mb 60f 57f
9:18 16 18 mph 1022.9mb 60f 57f
9:12 17 18 mph 1022.9mb 60f 57f
9:06 16 18 mph 1023mb 60f 57f
9:00 16 17 mph 1023.1mb 60f 57f
8:54 15 16 mph 1023.1mb 60f 57f
8:48 15 17 mph 1023.1mb 60f 57f
8:36 17 20 mph 1023.2mb 60f 57f
8:30 14 17 mph 1023.4mb 60f 57f
8:24 16 17 mph 1023.4mb 61f 57f
8:18 15 16 mph 1023.4mb 61f 57f
8:12 13 18 mph 1023.5mb 61f 57f
8:06 15 17 mph 1023.5mb 61f 57f
8:00 16 18 mph 1023.6mb 61f 57f
7:54 15 17 mph 1023.7mb 61f 57f
7:48 14 17 mph 1023.8mb 61f 57f
7:36 17 20 mph 1023.9mb 61f 58f
7:30 17 20 mph 1023.9mb 61f 58f
7:24 15 16 mph 1024mb 61f 58f
7:18 14 17 mph 1024mb 61f 58f
7:12 16 18 mph 1024mb 61f 58f
7:06 15 18 mph 1024mb 61f 58f
7:00 15 17 mph 1024.2mb 61f 58f
6:54 16 17 mph 1024.2mb 61f 58f
6:48 16 20 mph 1024.2mb 61f 58f
6:36 16 18 mph 1024.4mb 61f -
6:30 15 17 mph 1024.4mb 60f -
6:24 17 18 mph 1024.6mb 60f -
6:18 14 18 mph 1024.6mb 60f -
6:12 17 18 mph 1024.7mb 60f -
6:06 16 18 mph 1024.7mb 60f -
6:00 18 22 mph 1024.8mb 60f -
5:54 17 20 mph 1024.9mb 60f -
5:48 18 22 mph 1024.9mb 59f -
5:36 17 20 mph 1025.1mb 59f 58f
5:30 16 20 mph 1025.1mb 59f 58f
5:24 14 16 mph 1025.1mb 59f 58f
5:18 16 17 mph 1025.2mb 58f 59f
5:12 15 16 mph 1025.2mb 58f 59f
5:06 15 16 mph 1025.2mb 57f 58f
5:00 14 16 mph 1025.3mb 57f 58f
4:54 13 14 mph 1025.4mb 56f 58f
4:48 14 15 mph 1025.4mb 57f 58f
4:36 11 13 mph 1025.6mb 56f 59f
4:30 13 14 mph 1025.7mb 56f 59f
4:24 13 14 mph 1025.8mb 56f 59f
4:18 11 13 mph 1025.9mb 56f 59f
4:12 11
mph
1025.9mb 56f 59f
4:06 10 11 mph 1026mb 56f 59f
4:00 10 11 mph 1026.1mb 56f 59f
3:54 9 10 mph 1026.1mb 56f 59f
3:48 8 10 mph 1026.2mb 56f 59f
3:36 9 10 mph 1026.3mb 56f 59f
3:30 9 10 mph 1026.3mb 56f 59f
3:24 9 10 mph 1026.5mb 55f 58f
3:18 9 11 mph 1026.6mb 55f 59f
3:12 10
mph
1026.6mb 55f 59f
3:06 10
mph
1026.6mb 55f 59f
3:00 9 11 mph 1026.6mb 55f 59f
2:54 9 10 mph 1026.6mb 55f 59f
2:48 10
mph
1026.7mb 55f 59f
2:36 9 11 mph 1026.7mb 55f 58f
2:30 10 13 mph 1026.8mb 56f 58f
2:24 13 14 mph 1026.9mb 56f 58f
2:18 11 13 mph 1027mb 56f 58f
2:12 13 15 mph 1027mb 56f 59f
2:06 14
mph
1027mb 56f 59f
2:00 14 15 mph 1027mb 57f 59f
1:54 14
mph
1027mb 57f 59f
1:48 13 14 mph 1027mb 57f 59f
1:36 11 13 mph 1027.1mb 58f 59f
1:30 13 14 mph 1027.1mb 59f 59f
1:24 13 14 mph 1027.1mb 60f 59f
1:18 13 14 mph 1027.1mb 60f 59f
1:12 13 15 mph 1027.1mb 60f 59f
1:06 14 15 mph 1027.1mb 60f 59f
1:00 13 14 mph 1027.2mb 60f 60f
12:54 11 13 mph 1027.2mb 60f 60f
12:48 10 13 mph 1027.2mb 60f 61f
12:36 9 11 mph 1027.3mb 59f 61f
12:30 11 13 mph 1027.3mb 59f 61f
12:24 11
mph
1027.3mb 59f 61f
12:18 11
mph
1027.3mb 59f 60f
12:12 9 10 mph 1027.4mb 59f 60f
12:06 9 10 mph 1027.4mb 59f 60f
12:00 8 10 mph 1027.4mb 59f 60f
11:54 9 11 mph 1027.4mb 59f 59f
11:48 9 10 mph 1027.4mb 59f 59f
11:36 10 11 mph 1027.3mb 59f 59f
11:30 10 11 mph 1027.3mb 59f 59f
11:24 10 14 mph 1027.3mb 59f 59f
11:18 11 14 mph 1027.2mb 59f 59f
11:12 11 14 mph 1027.2mb 59f 60f
11:06 10 13 mph 1027.1mb 58f 61f
11:00 11 14 mph 1027mb 58f 61f
10:54 11 13 mph 1026.9mb 58f 61f
10:48 11 14 mph 1026.9mb 58f 60f
10:36 9 11 mph 1027mb 58f 60f
10:30 9 11 mph 1027mb 58f 60f
10:24 10 11 mph 1026.9mb 58f 60f
10:18 10 11 mph 1027mb 59f 60f
10:12 10 13 mph 1026.9mb 59f 59f
10:06 10
mph
1026.9mb 59f 59f
10:00 9 11 mph 1027mb 59f 59f
9:54 9 10 mph 1026.9mb 60f 59f
9:48 10
mph
1026.9mb 60f 59f
9:36 9
mph
1026.9mb 60f 59f
9:30 7 9 mph 1026.9mb 60f 59f
9:24 7 8 mph 1026.9mb 60f 59f
9:18 6 7 mph 1027mb 60f 59f
9:12 6 7 mph 1027mb 60f 59f
9:06 6 7 mph 1027mb 59f 58f
9:00 6 7 mph 1027mb 59f 58f
8:54 5 7 mph 1027mb 59f 59f
8:48 7 9 mph 1027mb 59f 58f
8:36 7 10 mph 1026.9mb 59f 59f
8:30 8 10 mph 1026.8mb 59f 59f
8:24 9 11 mph 1026.7mb 59f 59f
8:18 7 8 mph 1026.7mb 59f 59f
8:12 8 9 mph 1026.7mb 59f 59f
8:06 9 11 mph 1026.6mb 59f 59f
8:00 9 11 mph 1026.6mb 59f 58f
7:54 10 11 mph 1026.5mb 59f 58f
7:48 9 10 mph 1026.4mb 59f 58f
7:36 9 11 mph 1026.4mb 59f 59f
7:30 9 11 mph 1026.3mb 59f 59f
7:24 9 13 mph 1026.2mb 59f 59f
7:18 10 11 mph 1026.1mb 59f 59f
7:12 9 10 mph 1026mb 59f 59f
7:06 9 10 mph 1026mb 59f 60f
7:00 9 10 mph 1025.9mb 58f 59f
6:54 8 10 mph 1025.9mb 58f 59f
6:48 9 11 mph 1025.8mb 58f 58f
6:36 9 10 mph 1025.8mb 58f 58f
6:30 9 10 mph 1025.8mb 58f 57f
6:24 9 11 mph 1025.8mb 58f 57f
6:18 11 13 mph 1025.7mb 58f 57f
6:12 9 10 mph 1025.7mb 58f 57f
6:06 9 11 mph 1025.6mb 58f 57f
6:00 10 11 mph 1025.6mb 58f 57f
5:54 8 9 mph 1025.6mb 58f 57f
5:48 8 9 mph 1025.6mb 58f 57f
5:36 9 10 mph 1025.5mb 58f 57f